Time;durP1;ratioP1;P1;durP2;ratioP2;P2;SDS_P1;SDS_P2;PMS_P1;PMS_P2;Temp;Humidity;BMP_temperature;BMP_pressure;BME280_temperature;BME280_humidity;BME280_pressure;Samples;Min_cycle;Max_cycle;Signal;HPM_P1;HPM_P2
2022/10/19 00:00:44;;;;;;;4.68;1.50;;;13.80;90.80;;;;;;5058557;28;20336;-81
2022/10/19 00:03:09;;;;;;;4.53;1.70;;;13.80;90.40;;;;;;5061892;28;20492;-81
2022/10/19 00:05:35;;;;;;;4.68;1.60;;;13.70;90.40;;;;;;5071465;28;20339;-81
2022/10/19 00:08:01;;;;;;;3.50;1.50;;;13.70;90.40;;;;;;5048812;28;20020;-82
2022/10/19 00:10:27;;;;;;;3.15;1.70;;;13.70;90.40;;;;;;5053591;28;20029;-81
2022/10/19 00:12:53;;;;;;;3.33;1.70;;;13.70;90.40;;;;;;5060343;28;20374;-82
2022/10/19 00:15:18;;;;;;;3.65;1.50;;;13.60;90.50;;;;;;5050862;28;20263;-82
2022/10/19 00:17:44;;;;;;;3.70;1.60;;;13.60;90.50;;;;;;5064413;28;20416;-81
2022/10/19 00:20:10;;;;;;;3.97;1.52;;;13.60;90.50;;;;;;5063054;28;20024;-82
2022/10/19 00:22:36;;;;;;;2.72;1.52;;;13.50;90.60;;;;;;5053580;28;20020;-81
2022/10/19 00:25:03;;;;;;;3.10;1.53;;;13.50;90.70;;;;;;5047265;28;20378;-82
2022/10/19 00:27:28;;;;;;;3.20;1.52;;;13.50;90.70;;;;;;5045047;28;20016;-82
2022/10/19 00:29:54;;;;;;;3.20;1.67;;;13.50;90.80;;;;;;5062574;28;20024;-81
2022/10/19 00:32:19;;;;;;;6.60;1.77;;;13.50;90.90;;;;;;5058496;28;20044;-82
2022/10/19 00:34:45;;;;;;;3.33;1.60;;;13.40;90.90;;;;;;5068010;28;20224;-82
2022/10/19 00:37:11;;;;;;;3.03;1.65;;;13.40;91.00;;;;;;5059504;28;20362;-81
2022/10/19 00:39:37;;;;;;;3.37;1.80;;;13.40;91.00;;;;;;5043297;28;20028;-82
2022/10/19 00:42:03;;;;;;;2.90;1.48;;;13.40;91.10;;;;;;5062839;28;20020;-82
2022/10/19 00:44:28;;;;;;;4.07;1.70;;;13.40;91.10;;;;;;5056419;28;20236;-82
2022/10/19 00:46:59;;;;;;;4.20;1.80;;;13.30;91.20;;;;;;5055942;28;20283;-82
2022/10/19 00:49:31;;;;;;;4.10;1.90;;;13.30;91.20;;;;;;5053034;28;20049;-82
2022/10/19 00:52:02;;;;;;;2.57;1.40;;;13.30;91.30;;;;;;5043584;28;20033;-82
2022/10/19 00:54:30;;;;;;;4.45;1.65;;;13.30;91.40;;;;;;5045371;28;20028;-82
2022/10/19 00:56:57;;;;;;;4.78;1.90;;;13.30;91.50;;;;;;5072877;28;20035;-82
2022/10/19 00:59:25;;;;;;;3.22;1.60;;;13.30;91.50;;;;;;5070320;28;20028;-82
2022/10/19 01:01:52;;;;;;;3.17;1.77;;;13.30;91.60;;;;;;5055369;28;20036;-81
2022/10/19 01:04:20;;;;;;;4.40;1.70;;;13.20;91.60;;;;;;5064904;28;20036;-81
2022/10/19 01:06:47;;;;;;;5.40;1.70;;;13.20;91.70;;;;;;5070171;28;20220;-81
2022/10/19 01:09:13;;;;;;;3.88;1.73;;;13.30;91.70;;;;;;5060971;28;20055;-81
2022/10/19 01:11:44;;;;;;;4.80;1.70;;;13.30;91.80;;;;;;5050747;28;20249;-81
2022/10/19 01:14:25;;;;;;;3.80;1.58;;;13.20;91.80;;;;;;5072064;28;20100;-81
2022/10/19 01:17:22;;;;;;;2.70;1.40;;;13.20;91.80;;;;;;5047938;28;20048;-81
2022/10/19 01:20:11;;;;;;;5.82;1.48;;;13.20;91.80;;;;;;5038518;28;20551;-81
2022/10/19 01:23:14;;;;;;;3.33;1.52;;;13.20;91.80;;;;;;5061961;28;20025;-81
2022/10/19 01:26:04;;;;;;;3.00;1.42;;;13.20;91.80;;;;;;5055704;28;20048;-80
2022/10/19 01:29:00;;;;;;;3.42;1.50;;;13.10;91.80;;;;;;5037931;28;20460;-81
2022/10/19 01:31:42;;;;;;;2.70;1.30;;;13.10;91.80;;;;;;5057430;28;20032;-81
2022/10/19 01:34:12;;;;;;;3.22;1.42;;;13.10;91.80;;;;;;5061764;28;20028;-81
2022/10/19 01:37:05;;;;;;;4.00;1.80;;;13.10;91.80;;;;;;5045850;28;20417;-81
2022/10/19 01:40:06;;;;;;;2.53;1.52;;;13.00;91.70;;;;;;5047511;28;20298;-81
2022/10/19 01:42:51;;;;;;;3.97;1.70;;;13.00;91.70;;;;;;5051115;28;20020;-80
2022/10/19 01:45:38;;;;;;;2.63;1.40;;;13.00;91.70;;;;;;5060568;28;20153;-81
2022/10/19 01:48:12;;;;;;;2.53;1.33;;;12.90;91.70;;;;;;5055521;28;20052;-81
2022/10/19 01:50:46;;;;;;;2.53;1.42;;;12.90;91.70;;;;;;5060682;28;20044;-81
2022/10/19 01:53:15;;;;;;;2.92;1.40;;;12.90;91.80;;;;;;5061247;28;20039;-81
2022/10/19 01:55:43;;;;;;;4.85;1.55;;;12.80;91.80;;;;;;5065191;28;20020;-81
2022/10/19 01:58:15;;;;;;;2.57;1.30;;;12.80;91.80;;;;;;5049009;28;20029;-81
2022/10/19 02:00:44;;;;;;;4.35;1.77;;;12.80;91.90;;;;;;5061765;28;20086;-80
2022/10/19 02:03:11;;;;;;;2.58;1.40;;;12.80;92.00;;;;;;5056111;28;20031;-81
2022/10/19 02:05:39;;;;;;;3.50;1.55;;;12.70;92.10;;;;;;5059655;28;20029;-81
2022/10/19 02:08:19;;;;;;;3.35;1.60;;;12.70;92.10;;;;;;5060100;28;20055;-80
2022/10/19 02:10:46;;;;;;;3.03;1.33;;;12.70;92.20;;;;;;5064722;28;20044;-80
2022/10/19 02:13:14;;;;;;;3.75;1.50;;;12.60;92.20;;;;;;5048284;28;20436;-80
2022/10/19 02:15:44;;;;;;;2.97;1.52;;;12.70;92.20;;;;;;5070344;28;20107;-81
2022/10/19 02:18:14;;;;;;;3.47;1.80;;;12.60;92.30;;;;;;5058165;28;20221;-80
2022/10/19 02:20:40;;;;;;;3.88;1.70;;;12.60;92.40;;;;;;5063670;28;20028;-81
2022/10/19 02:23:06;;;;;;;4.00;1.73;;;12.60;92.50;;;;;;5062733;28;20077;-81
2022/10/19 02:25:33;;;;;;;4.82;1.73;;;12.60;92.60;;;;;;5058861;28;20286;-81
2022/10/19 02:28:00;;;;;;;3.40;1.63;;;12.50;92.60;;;;;;5052326;28;20058;-81
2022/10/19 02:30:26;;;;;;;4.70;1.63;;;12.50;92.70;;;;;;5060476;28;20093;-81
2022/10/19 02:32:52;;;;;;;4.13;1.83;;;12.50;92.70;;;;;;5069223;28;20024;-81
2022/10/19 02:35:18;;;;;;;5.93;1.80;;;12.50;92.80;;;;;;5060873;28;20625;-80
2022/10/19 02:37:44;;;;;;;4.57;1.65;;;12.50;92.90;;;;;;5061957;28;20476;-80
2022/10/19 02:40:10;;;;;;;5.80;1.75;;;12.50;93.00;;;;;;5043835;28;20019;-81
2022/10/19 02:42:54;;;;;;;3.83;1.65;;;12.50;93.10;;;;;;5048509;28;20700;-80
2022/10/19 02:45:28;;;;;;;3.33;1.87;;;12.50;93.20;;;;;;5060473;28;20108;-81
2022/10/19 02:47:55;;;;;;;3.33;1.70;;;12.50;93.30;;;;;;5060044;28;20401;-81
2022/10/19 02:50:21;;;;;;;3.30;1.50;;;12.40;93.30;;;;;;5046195;28;124359;-81
2022/10/19 02:52:47;;;;;;;3.83;1.80;;;12.40;93.30;;;;;;5069126;28;20429;-80
2022/10/19 02:55:13;;;;;;;1.87;1.37;;;12.50;93.30;;;;;;5063241;28;20199;-81
2022/10/19 02:57:38;;;;;;;2.88;1.60;;;12.50;93.30;;;;;;5068877;28;20036;-80
2022/10/19 03:00:06;;;;;;;3.50;1.57;;;12.50;93.30;;;;;;5037810;28;20027;-81
2022/10/19 03:02:32;;;;;;;3.15;1.40;;;12.40;93.40;;;;;;5063680;28;20066;-80
2022/10/19 03:04:57;;;;;;;2.53;1.50;;;12.40;93.40;;;;;;5048979;28;20024;-80
2022/10/19 03:07:23;;;;;;;4.72;1.70;;;12.40;93.50;;;;;;5065375;28;20047;-80
2022/10/19 03:09:49;;;;;;;3.17;1.60;;;12.40;93.60;;;;;;5056183;28;20031;-80
2022/10/19 03:12:15;;;;;;;4.75;2.10;;;12.40;93.60;;;;;;5042871;28;20055;-80
2022/10/19 03:14:42;;;;;;;4.25;1.70;;;12.40;93.60;;;;;;5041250;28;20077;-80
2022/10/19 03:17:08;;;;;;;4.30;1.75;;;12.40;93.70;;;;;;5056266;28;20503;-80
2022/10/19 03:19:35;;;;;;;3.87;1.63;;;12.40;93.80;;;;;;5064409;28;20674;-80
2022/10/19 03:22:01;;;;;;;3.00;1.60;;;12.30;93.80;;;;;;5054253;28;20140;-81
2022/10/19 03:24:28;;;;;;;3.33;1.73;;;12.40;93.90;;;;;;5059724;28;20156;-80
2022/10/19 03:26:53;;;;;;;4.70;1.60;;;12.30;93.90;;;;;;5050530;28;20020;-80
2022/10/19 03:29:19;;;;;;;4.30;1.53;;;12.30;93.90;;;;;;5048733;28;20100;-80
2022/10/19 03:31:45;;;;;;;2.40;1.40;;;12.30;93.90;;;;;;5049040;28;20020;-80
2022/10/19 03:34:10;;;;;;;4.57;1.80;;;12.30;93.90;;;;;;5064443;28;20556;-81
2022/10/19 03:36:38;;;;;;;3.60;1.63;;;12.30;93.90;;;;;;5041179;28;20009;-81
2022/10/19 03:39:07;;;;;;;3.33;1.50;;;12.30;94.00;;;;;;5065310;28;20030;-81
2022/10/19 03:41:34;;;;;;;2.95;1.55;;;12.20;94.00;;;;;;5063132;28;20402;-80
2022/10/19 03:44:00;;;;;;;3.78;1.75;;;12.20;94.10;;;;;;5042758;28;20726;-80
2022/10/19 03:46:26;;;;;;;3.37;1.83;;;12.20;94.10;;;;;;5046899;28;20017;-80
2022/10/19 03:48:52;;;;;;;4.15;1.65;;;12.20;94.10;;;;;;5054673;28;20391;-80
2022/10/19 03:51:28;;;;;;;2.17;1.50;;;12.20;94.10;;;;;;5058998;28;20031;-80
2022/10/19 03:53:58;;;;;;;2.57;1.53;;;12.20;94.20;;;;;;5064453;28;20324;-80
2022/10/19 03:56:25;;;;;;;3.00;1.52;;;12.10;94.10;;;;;;5067954;28;20531;-80
2022/10/19 03:58:54;;;;;;;6.35;1.85;;;12.10;94.10;;;;;;5057723;28;22514;-80
2022/10/19 04:01:32;;;;;;;3.95;1.42;;;12.10;94.20;;;;;;5064229;28;20035;-80
2022/10/19 04:04:01;;;;;;;2.90;1.65;;;12.10;94.20;;;;;;5064542;28;20017;-80
2022/10/19 04:06:29;;;;;;;3.70;1.57;;;12.10;94.30;;;;;;5063510;28;20028;-81
2022/10/19 04:08:56;;;;;;;3.95;1.73;;;12.10;94.30;;;;;;5060222;28;20214;-80
2022/10/19 04:11:24;;;;;;;4.10;1.85;;;12.00;94.30;;;;;;5044668;28;20016;-80
2022/10/19 04:13:51;;;;;;;3.20;1.83;;;12.00;94.30;;;;;;5066245;28;20301;-80
2022/10/19 04:16:18;;;;;;;2.72;1.58;;;12.00;94.40;;;;;;5067900;28;20024;-81
2022/10/19 04:18:44;;;;;;;4.83;1.70;;;12.00;94.50;;;;;;5054494;28;20031;-80
2022/10/19 04:21:24;;;;;;;4.03;1.80;;;12.00;94.50;;;;;;5055250;28;20033;-80
2022/10/19 04:24:02;;;;;;;4.70;1.65;;;12.00;94.40;;;;;;5062998;28;20255;-80
2022/10/19 04:26:28;;;;;;;3.75;1.77;;;12.00;94.40;;;;;;5050744;28;20028;-80
2022/10/19 04:28:57;;;;;;;4.40;1.70;;;11.90;94.40;;;;;;5053380;28;20382;-80
2022/10/19 04:31:22;;;;;;;3.72;1.85;;;11.90;94.40;;;;;;5059112;28;20333;-80
2022/10/19 04:33:48;;;;;;;2.90;1.63;;;11.90;94.30;;;;;;5052973;28;20332;-80
2022/10/19 04:36:14;;;;;;;3.67;1.80;;;11.90;94.30;;;;;;5064614;28;20037;-80
2022/10/19 04:38:39;;;;;;;4.07;1.63;;;11.90;94.30;;;;;;5064079;28;20075;-80
2022/10/19 04:41:11;;;;;;;3.75;1.77;;;11.80;94.60;;;;;;5061818;28;20024;-80
2022/10/19 04:43:37;;;;;;;4.88;1.88;;;11.80;94.30;;;;;;5058482;28;20032;-80
2022/10/19 04:46:11;;;;;;;3.67;1.83;;;11.80;94.30;;;;;;5041726;28;20259;-80
2022/10/19 04:48:39;;;;;;;6.07;2.10;;;11.80;94.40;;;;;;5052864;28;20449;-80
2022/10/19 04:51:05;;;;;;;4.50;1.73;;;11.70;94.40;;;;;;5064123;28;20223;-80
2022/10/19 04:53:31;;;;;;;4.18;1.80;;;11.70;94.50;;;;;;5048684;28;20017;-80
2022/10/19 04:55:57;;;;;;;3.03;1.80;;;11.70;94.50;;;;;;5047872;28;20148;-80
2022/10/19 04:58:23;;;;;;;3.13;1.80;;;11.70;94.50;;;;;;5044411;28;20127;-81
2022/10/19 05:00:49;;;;;;;3.60;1.90;;;11.60;94.80;;;;;;5053916;28;20024;-80
2022/10/19 05:03:15;;;;;;;3.90;2.03;;;11.60;94.50;;;;;;5048965;28;20089;-80
2022/10/19 05:05:40;;;;;;;3.37;1.80;;;11.60;94.50;;;;;;5048240;28;21143;-79
2022/10/19 05:08:06;;;;;;;4.53;1.98;;;11.60;94.60;;;;;;5061392;28;20028;-80
2022/10/19 05:10:32;;;;;;;3.00;2.10;;;11.60;94.70;;;;;;5054213;28;20017;-80
2022/10/19 05:13:01;;;;;;;3.27;2.07;;;11.60;94.70;;;;;;5062588;28;20309;-80
2022/10/19 05:15:27;;;;;;;4.57;2.17;;;11.50;94.70;;;;;;5057787;28;20346;-80
2022/10/19 05:17:53;;;;;;;4.50;2.15;;;11.50;94.70;;;;;;5062564;28;20029;-80
2022/10/19 05:20:19;;;;;;;6.13;2.10;;;11.50;94.70;;;;;;5049216;28;20103;-80
2022/10/19 05:22:45;;;;;;;3.78;2.00;;;11.40;94.70;;;;;;5064283;28;20733;-80
2022/10/19 05:25:10;;;;;;;3.57;1.77;;;11.50;94.70;;;;;;5051516;28;20476;-80
2022/10/19 05:27:36;;;;;;;4.27;2.07;;;11.40;94.60;;;;;;5061281;28;20148;-80
2022/10/19 05:30:02;;;;;;;4.67;2.17;;;11.40;94.60;;;;;;5061623;28;20701;-79
2022/10/19 05:32:27;;;;;;;3.58;2.15;;;11.40;94.60;;;;;;5059552;28;20032;-80
2022/10/19 05:34:53;;;;;;;3.73;2.00;;;11.40;94.70;;;;;;5049901;28;20036;-79
2022/10/19 05:37:20;;;;;;;4.30;2.30;;;11.40;94.70;;;;;;5061247;28;20476;-80
2022/10/19 05:39:46;;;;;;;4.80;2.40;;;11.30;94.80;;;;;;5046991;28;20350;-79
2022/10/19 05:42:11;;;;;;;5.60;2.50;;;11.40;95.00;;;;;;5062427;28;20032;-79
2022/10/19 05:44:37;;;;;;;4.73;2.33;;;11.30;95.00;;;;;;5065042;28;20017;-80
2022/10/19 05:47:03;;;;;;;3.50;2.22;;;11.30;95.10;;;;;;5064581;28;20573;-80
2022/10/19 05:49:28;;;;;;;4.97;2.20;;;11.30;95.10;;;;;;5040868;28;20044;-80
2022/10/19 05:51:54;;;;;;;6.38;2.55;;;11.30;95.10;;;;;;5055269;28;20332;-79
2022/10/19 05:54:20;;;;;;;5.37;2.33;;;11.30;95.10;;;;;;5058975;28;20024;-80
2022/10/19 05:56:46;;;;;;;4.70;2.53;;;11.30;95.20;;;;;;5042533;28;20038;-80
2022/10/19 05:59:17;;;;;;;6.50;2.60;;;11.30;95.20;;;;;;5046142;28;20013;-80
2022/10/19 06:01:44;;;;;;;6.35;2.83;;;11.30;95.20;;;;;;5069847;28;20114;-80
2022/10/19 06:04:09;;;;;;;5.87;2.73;;;11.20;95.30;;;;;;5074864;28;20029;-80
2022/10/19 06:06:35;;;;;;;5.65;2.65;;;11.20;95.30;;;;;;5055624;28;20074;-80
2022/10/19 06:09:02;;;;;;;5.65;2.80;;;11.20;95.40;;;;;;5052878;28;20021;-80
2022/10/19 06:11:33;;;;;;;4.93;2.67;;;11.20;95.50;;;;;;5046675;28;20127;-80
2022/10/19 06:14:01;;;;;;;4.22;2.70;;;11.20;95.50;;;;;;5070035;28;20103;-79
2022/10/19 06:16:28;;;;;;;4.50;2.70;;;11.20;95.50;;;;;;5054921;28;20508;-79
2022/10/19 06:18:55;;;;;;;6.32;2.63;;;11.20;95.60;;;;;;5065586;28;20024;-80
2022/10/19 06:21:23;;;;;;;4.43;2.70;;;11.20;95.60;;;;;;5054705;28;20055;-79
2022/10/19 06:23:50;;;;;;;4.70;2.67;;;11.20;95.70;;;;;;5046637;28;20036;-80
2022/10/19 06:26:16;;;;;;;6.13;3.20;;;11.20;96.10;;;;;;5053935;28;20290;-79
2022/10/19 06:28:42;;;;;;;5.45;2.85;;;11.20;95.90;;;;;;5064203;28;20416;-79
2022/10/19 06:31:09;;;;;;;6.70;2.90;;;11.20;96.00;;;;;;5063681;28;20109;-80
2022/10/19 06:33:35;;;;;;;5.80;2.97;;;11.20;96.10;;;;;;5024440;28;20016;-80
2022/10/19 06:36:16;;;;;;;5.15;3.22;;;11.20;96.20;;;;;;5055617;28;20061;-80
2022/10/19 06:38:42;;;;;;;5.30;2.92;;;11.20;96.30;;;;;;5049937;28;20265;-80
2022/10/19 06:41:09;;;;;;;6.07;2.90;;;11.20;96.30;;;;;;5061984;28;20028;-80
2022/10/19 06:43:34;;;;;;;5.68;2.95;;;11.20;96.30;;;;;;5037401;28;20157;-80
2022/10/19 06:46:10;;;;;;;5.75;2.95;;;11.30;96.40;;;;;;5058478;28;20029;-80
2022/10/19 06:48:35;;;;;;;6.07;3.10;;;11.30;96.90;;;;;;5053575;28;20416;-80
2022/10/19 06:51:04;;;;;;;6.53;3.10;;;11.30;96.50;;;;;;5029866;28;20046;-80
2022/10/19 06:53:30;;;;;;;6.13;3.40;;;11.30;96.60;;;;;;5037206;28;20016;-80
2022/10/19 06:56:01;;;;;;;6.63;3.20;;;11.30;96.70;;;;;;5051711;28;20393;-80
2022/10/19 06:58:26;;;;;;;6.22;3.10;;;11.30;96.80;;;;;;5038336;28;21552;-80
2022/10/19 07:00:59;;;;;;;6.93;3.35;;;11.40;96.90;;;;;;5039337;28;20025;-80
2022/10/19 07:03:26;;;;;;;7.07;3.60;;;11.40;97.10;;;;;;5052723;28;20060;-80
2022/10/19 07:05:57;;;;;;;8.50;3.78;;;11.50;97.20;;;;;;5053525;28;20044;-80
2022/10/19 07:08:24;;;;;;;6.97;3.70;;;11.50;97.40;;;;;;5050272;28;20120;-80
2022/10/19 07:10:51;;;;;;;6.72;3.70;;;11.60;97.60;;;;;;5042919;28;20529;-81
2022/10/19 07:13:17;;;;;;;5.18;3.35;;;11.60;97.70;;;;;;5059506;28;20032;-80
2022/10/19 07:15:43;;;;;;;6.22;3.33;;;11.70;97.80;;;;;;5038564;28;20606;-80
2022/10/19 07:18:08;;;;;;;7.53;3.87;;;11.70;98.20;;;;;;5070559;28;20528;-81
2022/10/19 07:20:34;;;;;;;5.07;3.47;;;11.80;98.70;;;;;;5060757;28;20032;-80
2022/10/19 07:22:59;;;;;;;6.88;3.50;;;12.00;99.70;;;;;;5040216;28;20468;-80
2022/10/19 07:25:25;;;;;;;5.40;3.70;;;12.30;99.90;;;;;;5066074;28;20043;-81
2022/10/19 07:27:51;;;;;;;5.78;3.40;;;12.60;99.90;;;;;;5047511;28;20228;-80
2022/10/19 07:30:17;;;;;;;6.03;3.50;;;13.00;99.90;;;;;;5036944;28;20031;-81
2022/10/19 07:32:42;;;;;;;7.20;3.38;;;13.40;99.90;;;;;;5059259;28;20523;-80
2022/10/19 07:35:08;;;;;;;6.53;3.30;;;13.90;99.90;;;;;;5065786;28;20043;-81
2022/10/19 07:37:33;;;;;;;6.72;3.30;;;14.30;99.90;;;;;;5056628;28;20043;-80
2022/10/19 07:39:59;;;;;;;8.07;3.70;;;14.80;99.90;;;;;;5056664;28;20131;-81
2022/10/19 07:42:25;;;;;;;6.20;3.08;;;15.20;99.90;;;;;;5054858;28;20436;-80
2022/10/19 07:44:50;;;;;;;5.43;3.03;;;15.60;99.90;;;;;;5027170;28;20171;-80
2022/10/19 07:47:16;;;;;;;5.20;3.10;;;16.00;99.90;;;;;;5059984;28;20028;-81
2022/10/19 07:49:41;;;;;;;6.40;2.95;;;16.40;99.90;;;;;;5061372;28;20463;-81
2022/10/19 07:52:07;;;;;;;6.87;3.10;;;16.60;99.90;;;;;;5055384;28;20308;-81
2022/10/19 07:54:32;;;;;;;4.33;2.70;;;16.70;98.80;;;;;;5055396;28;20040;-81
2022/10/19 07:56:58;;;;;;;7.37;3.00;;;16.70;97.90;;;;;;5057964;28;20771;-81
2022/10/19 07:59:24;;;;;;;6.33;3.07;;;16.60;97.20;;;;;;5067761;28;20784;-81
2022/10/19 08:01:49;;;;;;;5.80;2.80;;;16.50;96.80;;;;;;5048801;28;20295;-81
2022/10/19 08:04:16;;;;;;;5.57;3.10;;;16.30;96.50;;;;;;5057885;28;20079;-81
2022/10/19 08:06:41;;;;;;;7.40;2.90;;;16.20;96.60;;;;;;5055039;28;20027;-81
2022/10/19 08:09:07;;;;;;;5.32;2.85;;;15.90;96.60;;;;;;5057214;28;20013;-81
2022/10/19 08:11:34;;;;;;;6.70;3.03;;;15.80;96.90;;;;;;5036441;28;20447;-81
2022/10/19 08:14:01;;;;;;;5.70;2.78;;;15.70;97.10;;;;;;5059119;28;20039;-81
2022/10/19 08:16:35;;;;;;;5.05;2.72;;;15.50;97.40;;;;;;5054482;28;20036;-81
2022/10/19 08:19:04;;;;;;;5.50;3.10;;;15.40;97.40;;;;;;5058100;28;20036;-81
2022/10/19 08:21:30;;;;;;;4.72;2.85;;;15.40;97.80;;;;;;5044381;28;20024;-81
2022/10/19 08:23:56;;;;;;;6.30;3.05;;;15.30;98.00;;;;;;5050588;28;20024;-81
2022/10/19 08:26:22;;;;;;;6.10;2.90;;;15.20;98.20;;;;;;5034664;28;20070;-81
2022/10/19 08:28:48;;;;;;;5.20;2.90;;;15.20;98.40;;;;;;5059667;28;20702;-81
2022/10/19 08:31:17;;;;;;;5.13;2.80;;;15.10;98.70;;;;;;5051932;28;20283;-81
2022/10/19 08:33:43;;;;;;;4.88;2.67;;;15.10;98.80;;;;;;5038230;28;20016;-81
2022/10/19 08:36:10;;;;;;;6.20;2.72;;;15.10;99.30;;;;;;5052985;28;20092;-81
2022/10/19 08:38:37;;;;;;;6.78;2.97;;;15.10;99.50;;;;;;5059362;28;20086;-81
2022/10/19 08:41:19;;;;;;;5.77;2.73;;;15.20;99.70;;;;;;5063085;28;21404;-81
2022/10/19 08:44:01;;;;;;;7.22;3.10;;;15.30;99.90;;;;;;5061601;28;20031;-82
2022/10/19 08:46:55;;;;;;;5.53;2.70;;;15.50;99.90;;;;;;5061283;28;20025;-82
2022/10/19 08:49:24;;;;;;;5.88;2.72;;;15.80;99.90;;;;;;5045974;28;20071;-81
2022/10/19 08:52:32;;;;;;;5.32;2.90;;;16.20;99.90;;;;;;5051116;28;20389;-81
2022/10/19 08:55:13;;;;;;;4.83;2.77;;;16.60;99.90;;;;;;5048746;28;21068;-81
2022/10/19 08:58:17;;;;;;;4.43;2.50;;;16.80;99.90;;;;;;5046780;28;20056;-81
2022/10/19 09:00:53;;;;;;;5.03;2.80;;;17.20;99.90;;;;;;5053273;28;20063;-82
2022/10/19 09:03:38;;;;;;;4.72;2.63;;;17.60;99.90;;;;;;5047584;28;20489;-81
2022/10/19 09:06:07;;;;;;;6.18;2.80;;;17.90;99.90;;;;;;5058852;28;20257;-82
2022/10/19 09:08:37;;;;;;;6.97;2.77;;;18.20;99.90;;;;;;5041307;28;20465;-81
2022/10/19 09:11:02;;;;;;;5.65;2.90;;;18.60;99.90;;;;;;5061013;28;20067;-81
2022/10/19 09:13:35;;;;;;;5.78;2.70;;;18.80;99.90;;;;;;5044201;28;20035;-82
2022/10/19 09:16:03;;;;;;;8.03;2.53;;;19.10;99.90;;;;;;5027594;28;20536;-82
2022/10/19 09:18:31;;;;;;;5.40;2.60;;;19.40;99.90;;;;;;5032595;28;21969;-82
2022/10/19 09:21:11;;;;;;;4.65;2.35;;;19.60;99.90;;;;;;5068569;28;20085;-82
2022/10/19 09:23:54;;;;;;;4.90;2.60;;;19.80;99.90;;;;;;5080661;27;20024;-81
2022/10/19 09:26:23;;;;;;;5.18;2.60;;;20.10;99.90;;;;;;5043236;28;20213;-82
2022/10/19 09:28:56;;;;;;;4.67;2.60;;;20.50;99.90;;;;;;5060691;28;20133;-82
2022/10/19 09:31:32;;;;;;;5.60;2.40;;;20.80;99.90;;;;;;5051729;28;20119;-81
2022/10/19 09:34:14;;;;;;;6.07;2.70;;;21.30;99.90;;;;;;5034298;28;20027;-82
2022/10/19 09:36:42;;;;;;;3.63;2.45;;;21.80;99.70;;;;;;5058851;28;20044;-82
2022/10/19 09:39:12;;;;;;;5.00;2.15;;;22.30;99.90;;;;;;5044863;28;20303;-81
2022/10/19 09:41:50;;;;;;;3.73;2.00;;;22.70;99.90;;;;;;5054486;28;20277;-81
2022/10/19 09:44:16;;;;;;;4.82;2.30;;;23.10;98.20;;;;;;5034902;28;20714;-81
2022/10/19 09:46:55;;;;;;;5.53;2.50;;;23.50;99.90;;;;;;5058157;28;20153;-81
2022/10/19 09:49:39;;;;;;;5.20;2.25;;;23.90;97.30;;;;;;5049137;28;20535;-82
2022/10/19 09:52:05;;;;;;;3.70;2.10;;;24.30;95.10;;;;;;5068174;28;20043;-81
2022/10/19 09:54:36;;;;;;;3.73;1.83;;;24.70;98.80;;;;;;5059310;28;20024;-81
2022/10/19 09:57:03;;;;;;;4.60;2.45;;;25.00;96.50;;;;;;5067506;28;20084;-82
2022/10/19 09:59:33;;;;;;;3.03;1.90;;;25.30;96.50;;;;;;5042167;28;20042;-81
2022/10/19 10:02:05;;;;;;;4.68;2.25;;;25.50;95.40;;;;;;5054247;28;20054;-82
2022/10/19 10:04:31;;;;;;;3.20;1.80;;;25.80;93.40;;;;;;5032677;28;20048;-81
2022/10/19 10:06:57;;;;;;;3.40;2.00;;;25.90;95.30;;;;;;5047603;28;20024;-82
2022/10/19 10:09:27;;;;;;;4.75;2.25;;;26.10;94.40;;;;;;5061065;28;20028;-82
2022/10/19 10:11:55;;;;;;;6.37;2.37;;;26.30;93.20;;;;;;5067665;28;20016;-82
2022/10/19 10:14:32;;;;;;;3.50;2.03;;;26.40;94.00;;;;;;5052555;28;20058;-82
2022/10/19 10:17:02;;;;;;;3.85;2.10;;;26.60;93.10;;;;;;5050432;28;20016;-82
2022/10/19 10:19:30;;;;;;;2.95;1.58;;;26.80;92.60;;;;;;5045578;28;20028;-81
2022/10/19 10:21:57;;;;;;;3.40;2.10;;;27.00;94.60;;;;;;5064086;28;20025;-82
2022/10/19 10:24:28;;;;;;;3.87;2.00;;;27.20;93.80;;;;;;5057457;28;20412;-81
2022/10/19 10:26:59;;;;;;;3.40;2.00;;;27.40;93.70;;;;;;5052860;28;20426;-82
2022/10/19 10:29:33;;;;;;;2.42;1.95;;;27.70;94.00;;;;;;5045891;28;20104;-82
2022/10/19 10:32:10;;;;;;;3.00;2.17;;;28.00;94.10;;;;;;5054383;28;20036;-82
2022/10/19 10:34:55;;;;;;;3.95;1.92;;;28.40;91.80;;;;;;5050155;28;20493;-82
2022/10/19 10:37:42;;;;;;;3.70;2.20;;;28.60;88.30;;;;;;5061976;28;20039;-82
2022/10/19 10:40:22;;;;;;;3.65;2.17;;;28.90;86.00;;;;;;5044716;28;20035;-82
2022/10/19 10:42:49;;;;;;;4.20;2.20;;;29.20;88.30;;;;;;5058391;28;20025;-82
2022/10/19 10:45:30;;;;;;;3.97;2.33;;;29.40;92.60;;;;;;5036633;28;20036;-82
2022/10/19 10:47:56;;;;;;;3.28;2.10;;;29.70;88.60;;;;;;5061866;28;20105;-82
2022/10/19 10:50:35;;;;;;;3.97;2.10;;;29.90;92.70;;;;;;5055751;28;20063;-81
2022/10/19 10:53:03;;;;;;;4.88;2.20;;;30.10;85.40;;;;;;5060221;28;20028;-82
2022/10/19 10:55:30;;;;;;;4.47;2.40;;;30.20;89.50;;;;;;5051084;28;20657;-82
2022/10/19 10:58:20;;;;;;;4.18;2.40;;;30.30;88.90;;;;;;5052537;28;20362;-82
2022/10/19 11:00:48;;;;;;;3.35;2.17;;;30.30;81.80;;;;;;5065208;28;20469;-82
2022/10/19 11:03:21;;;;;;;2.90;2.00;;;30.30;90.20;;;;;;5068971;28;20330;-83
2022/10/19 11:05:54;;;;;;;5.03;2.38;;;30.50;87.80;;;;;;5077855;27;20024;-82
2022/10/19 11:08:47;;;;;;;4.55;2.47;;;30.50;85.50;;;;;;5052784;28;20033;-82
2022/10/19 11:11:35;;;;;;;6.25;2.58;;;30.60;82.80;;;;;;5051751;28;20035;-82
2022/10/19 11:14:13;;;;;;;3.53;2.60;;;30.60;77.90;;;;;;5069776;28;20046;-82
2022/10/19 11:16:45;;;;;;;5.00;2.23;;;30.70;88.40;;;;;;5044751;28;20863;-82
2022/10/19 11:19:29;;;;;;;5.22;2.60;;;30.80;82.20;;;;;;5066420;28;20083;-82
2022/10/19 11:22:19;;;;;;;4.30;2.40;;;30.80;79.40;;;;;;5059778;28;20028;-81
2022/10/19 11:25:17;;;;;;;5.05;2.45;;;30.80;80.10;;;;;;5067207;28;20308;-82
2022/10/19 11:27:51;;;;;;;4.20;2.70;;;30.80;78.40;;;;;;5027260;28;20036;-82
2022/10/19 11:30:24;;;;;;;3.60;2.57;;;30.90;88.70;;;;;;5048217;28;20108;-82
2022/10/19 11:33:14;;;;;;;5.00;2.47;;;31.10;83.50;;;;;;5045320;28;20039;-83
2022/10/19 11:36:02;;;;;;;4.03;2.53;;;31.10;78.40;;;;;;5039364;28;20021;-82
2022/10/19 11:38:47;;;;;;;5.70;2.50;;;31.20;77.90;;;;;;5064486;28;20381;-82
2022/10/19 11:42:03;;;;;;;3.90;2.50;;;31.20;77.40;;;;;;5064498;28;20400;-82
2022/10/19 11:44:37;;;;;;;3.63;2.37;;;31.20;77.50;;;;;;4989775;28;20120;-81
2022/10/19 11:47:23;;;;;;;4.88;2.40;;;31.20;83.20;;;;;;4983164;28;20326;-82
2022/10/19 11:50:09;;;;;;;4.93;2.50;;;31.30;85.60;;;;;;5014488;28;20777;-82
2022/10/19 11:52:54;;;;;;;4.25;2.40;;;31.20;77.20;;;;;;5034548;28;20492;-81
2022/10/19 11:55:37;;;;;;;4.68;2.45;;;31.20;80.40;;;;;;5056448;28;20081;-82
2022/10/19 11:58:42;;;;;;;3.73;2.27;;;31.10;77.90;;;;;;5057259;28;20029;-82
2022/10/19 12:01:16;;;;;;;5.07;2.70;;;30.90;74.70;;;;;;5071390;28;20031;-82
2022/10/19 12:03:55;;;;;;;4.05;2.63;;;30.70;78.60;;;;;;5042832;28;20488;-81
2022/10/19 12:06:20;;;;;;;5.85;2.90;;;30.50;74.60;;;;;;5071720;28;20036;-82
2022/10/19 12:08:55;;;;;;;5.07;2.50;;;30.30;80.90;;;;;;5025824;28;20028;-81
2022/10/19 12:11:43;;;;;;;4.72;2.75;;;30.10;74.70;;;;;;5073125;28;20044;-81
2022/10/19 12:14:13;;;;;;;4.05;2.67;;;29.90;75.00;;;;;;5064294;28;20032;-81
2022/10/19 12:16:43;;;;;;;5.25;2.95;;;29.60;76.80;;;;;;5053041;28;20405;-82
2022/10/19 12:19:41;;;;;;;5.13;2.93;;;29.40;76.40;;;;;;5035638;28;20008;-82
2022/10/19 12:22:17;;;;;;;4.32;2.70;;;29.20;75.50;;;;;;5062010;28;20464;-81
2022/10/19 12:24:42;;;;;;;6.18;3.10;;;29.00;77.20;;;;;;5045343;28;20090;-81
2022/10/19 12:27:16;;;;;;;5.13;2.70;;;28.80;79.10;;;;;;5061748;28;20516;-81
2022/10/19 12:29:45;;;;;;;5.47;2.58;;;28.70;75.90;;;;;;5065534;28;20627;-82
2022/10/19 12:32:15;;;;;;;6.75;2.70;;;28.60;77.20;;;;;;5058832;28;20019;-81
2022/10/19 12:35:03;;;;;;;4.78;2.70;;;28.50;76.70;;;;;;5042656;28;20028;-81
2022/10/19 12:37:40;;;;;;;3.85;2.40;;;28.40;72.90;;;;;;5064803;28;20036;-81
2022/10/19 12:40:15;;;;;;;5.93;2.70;;;28.30;76.40;;;;;;5056323;28;20167;-82
2022/10/19 12:42:40;;;;;;;5.28;2.50;;;28.20;73.10;;;;;;5065184;28;20035;-81
2022/10/19 12:45:10;;;;;;;4.38;2.60;;;28.10;77.70;;;;;;5059410;28;20496;-81
2022/10/19 12:47:36;;;;;;;4.87;2.93;;;28.00;77.50;;;;;;5078054;28;20097;-81
2022/10/19 12:50:02;;;;;;;5.43;2.60;;;28.00;78.10;;;;;;5049790;28;20582;-82
2022/10/19 12:52:48;;;;;;;4.82;2.70;;;28.00;79.10;;;;;;5026099;28;20408;-82
2022/10/19 12:55:13;;;;;;;5.57;2.53;;;28.10;72.80;;;;;;5039724;28;20024;-81
2022/10/19 12:57:42;;;;;;;4.40;2.47;;;28.10;80.20;;;;;;5060192;28;20398;-82
2022/10/19 13:00:36;;;;;;;4.63;2.63;;;28.30;80.20;;;;;;5068754;28;20216;-82
2022/10/19 13:03:05;;;;;;;6.68;2.70;;;28.50;73.30;;;;;;5070107;28;20028;-82
2022/10/19 13:05:32;;;;;;;6.10;2.70;;;28.80;78.60;;;;;;5058192;28;20029;-82
2022/10/19 13:08:00;;;;;;;4.90;2.78;;;28.90;80.40;;;;;;5062530;28;20142;-81